Bartlett, North Dakota
Current Conditions -  °F | °C
As of 7:55 AM on Saturday 20 Dec 2014 (Local Time) from KDVL Reporting Station
Overcast Overcast  
Wind Chill: 21°   Ceiling: 300
Heat Index: 21°   Visibility: 1.2mi
Dew Point: 14°   Wind: 0mph
Humidity: 74%   Direction: NA
Pressure: 29.94"   Gusts: NA
Location:  48.021°N, 98.3447°W
Report Text: KDVL 201355Z AUTO 00000KT 1 1/4SM OVC003 M06/M10 A2994 RMK AO1
Loading
Personal Weather Stations






























Interactive Weather Map New forecast layout! Learn more

10-Day Weather Forecast

Advertisements
Track Severe Weather on mobile